createdAt,value
2023-02-19T00:00:12.085Z,13.27
2023-02-19T00:03:13.916Z,13.56
2023-02-19T00:06:16.010Z,13.68
2023-02-19T00:09:18.735Z,13.74
2023-02-19T00:12:21.215Z,13.50
2023-02-19T00:15:23.165Z,13.25
2023-02-19T00:18:25.027Z,13.06
2023-02-19T00:21:27.349Z,13.44
2023-02-19T00:24:29.225Z,13.54
2023-02-19T00:27:31.055Z,13.49
2023-02-19T00:30:32.969Z,13.02
2023-02-19T00:33:34.905Z,13.26
2023-02-19T00:36:37.612Z,13.17
2023-02-19T00:39:39.782Z,13.09
2023-02-19T00:42:41.716Z,13.58
2023-02-19T00:45:43.959Z,13.29
2023-02-19T00:48:45.973Z,13.25
2023-02-19T00:51:48.113Z,13.20
2023-02-19T00:54:49.967Z,13.38
2023-02-19T00:57:51.947Z,13.59
2023-02-19T01:00:53.802Z,13.45
2023-02-19T01:03:55.680Z,13.34
2023-02-19T01:06:57.743Z,13.41
2023-02-19T01:09:59.696Z,13.01
2023-02-19T01:13:01.670Z,13.44
2023-02-19T01:16:06.626Z,13.95
2023-02-19T01:19:08.546Z,13.88
2023-02-19T01:22:10.711Z,13.83
2023-02-19T01:25:12.746Z,13.90
2023-02-19T01:28:14.824Z,13.51
2023-02-19T01:31:18.153Z,13.50
2023-02-19T01:34:20.087Z,14.31
2023-02-19T01:37:21.898Z,13.91
2023-02-19T01:40:23.883Z,13.68
2023-02-19T01:43:26.094Z,13.59
2023-02-19T01:46:29.167Z,12.97
2023-02-19T01:49:32.374Z,13.77
2023-02-19T01:52:34.719Z,12.99
2023-02-19T01:55:36.643Z,13.93
2023-02-19T01:58:38.551Z,13.44
2023-02-19T02:01:40.496Z,13.74
2023-02-19T02:04:42.461Z,13.25
2023-02-19T02:08:02.866Z,13.67
2023-02-19T02:11:04.912Z,13.14
2023-02-19T02:14:06.897Z,13.12
2023-02-19T02:17:29.125Z,13.51
2023-02-19T02:20:37.240Z,13.52
2023-02-19T02:23:39.023Z,13.54
2023-02-19T02:26:52.527Z,13.77
2023-02-19T02:30:13.460Z,13.31
2023-02-19T02:33:26.967Z,12.89
2023-02-19T02:36:33.836Z,12.90
2023-02-19T02:39:35.984Z,12.99
2023-02-19T02:42:38.820Z,13.58
2023-02-19T02:45:40.842Z,13.08
2023-02-19T02:48:46.746Z,12.81
2023-02-19T02:51:50.451Z,13.49
2023-02-19T02:55:04.490Z,13.09
2023-02-19T02:58:06.373Z,13.12
2023-02-19T03:01:30.998Z,13.31
2023-02-19T03:04:58.873Z,12.95
2023-02-19T03:08:00.689Z,12.94
2023-02-19T03:11:24.017Z,13.15
2023-02-19T03:14:47.208Z,13.53
2023-02-19T03:18:08.787Z,13.67
2023-02-19T03:21:10.920Z,13.50
2023-02-19T03:24:31.654Z,13.19
2023-02-19T03:27:33.512Z,13.91
2023-02-19T03:30:55.711Z,13.68
2023-02-19T03:33:58.551Z,13.43
2023-02-19T03:37:32.907Z,13.45
2023-02-19T03:40:35.975Z,13.94
2023-02-19T03:43:42.284Z,13.60
2023-02-19T03:46:44.180Z,13.56
2023-02-19T03:49:49.090Z,13.39
2023-02-19T03:53:04.205Z,13.82
2023-02-19T03:56:24.885Z,13.60
2023-02-19T03:59:34.632Z,14.00
2023-02-19T04:02:41.831Z,14.54
2023-02-19T04:05:55.483Z,13.97
2023-02-19T04:08:59.002Z,14.71
2023-02-19T04:12:00.819Z,14.08
2023-02-19T04:15:04.963Z,14.26
2023-02-19T04:18:07.536Z,14.85
2023-02-19T04:21:09.947Z,13.74
2023-02-19T04:24:16.990Z,14.11
2023-02-19T04:27:19.102Z,13.99
2023-02-19T04:30:21.265Z,14.53
2023-02-19T04:33:23.217Z,13.50
2023-02-19T04:36:25.004Z,13.94
2023-02-19T04:39:26.916Z,13.44
2023-02-19T04:42:28.729Z,13.62
2023-02-19T04:45:30.773Z,14.15
2023-02-19T04:48:32.855Z,14.05
2023-02-19T04:51:34.755Z,13.83
2023-02-19T04:54:36.695Z,13.82
2023-02-19T04:57:38.568Z,13.89
2023-02-19T05:00:40.434Z,13.02
2023-02-19T05:03:42.376Z,14.14
2023-02-19T05:06:44.282Z,14.05
2023-02-19T05:09:46.241Z,13.81
2023-02-19T05:12:48.200Z,13.33
2023-02-19T05:15:56.437Z,13.12
2023-02-19T05:18:58.484Z,12.55
2023-02-19T05:22:00.609Z,13.13
2023-02-19T05:25:02.499Z,13.66
2023-02-19T05:28:19.538Z,13.91
2023-02-19T05:31:21.984Z,13.48
2023-02-19T05:34:23.904Z,13.17
2023-02-19T05:37:25.887Z,14.02
2023-02-19T05:40:27.788Z,14.34
2023-02-19T05:43:29.725Z,14.71
2023-02-19T05:46:32.078Z,14.52
2023-02-19T05:49:34.073Z,14.35
2023-02-19T05:52:36.122Z,14.79
2023-02-19T05:55:38.114Z,14.81
2023-02-19T05:58:40.065Z,14.32
2023-02-19T06:01:42.150Z,13.61
2023-02-19T06:04:44.121Z,14.45
2023-02-19T06:07:45.983Z,14.82
2023-02-19T06:10:47.990Z,14.42
2023-02-19T06:13:50.683Z,14.31
2023-02-19T06:16:52.498Z,13.92
2023-02-19T06:19:54.400Z,13.44
2023-02-19T06:22:56.807Z,13.41
2023-02-19T06:26:08.637Z,13.45
2023-02-19T06:29:10.435Z,13.00
2023-02-19T06:32:12.440Z,12.98
2023-02-19T06:35:14.538Z,12.99
2023-02-19T06:38:16.682Z,12.82
2023-02-19T06:41:18.889Z,12.72
2023-02-19T06:44:21.020Z,12.39
2023-02-19T06:47:25.163Z,12.25
2023-02-19T06:50:27.293Z,12.29
2023-02-19T06:53:29.229Z,12.13
2023-02-19T06:56:32.120Z,12.50
2023-02-19T06:59:33.979Z,12.31
2023-02-19T07:02:35.892Z,12.20
2023-02-19T07:05:37.706Z,12.08
2023-02-19T07:08:39.770Z,12.12
2023-02-19T07:11:42.636Z,11.79
2023-02-19T07:14:44.482Z,11.80
2023-02-19T07:17:46.408Z,11.73
2023-02-19T07:20:48.392Z,11.36
2023-02-19T07:23:50.378Z,10.90
2023-02-19T07:26:52.211Z,11.09
2023-02-19T07:29:54.127Z,11.48
2023-02-19T07:32:55.976Z,10.97
2023-02-19T07:35:57.922Z,11.81
2023-02-19T07:39:00.018Z,11.77
2023-02-19T07:42:02.003Z,11.63
2023-02-19T07:45:04.028Z,11.75
2023-02-19T07:48:05.852Z,11.90
2023-02-19T07:51:09.643Z,11.18
2023-02-19T07:54:11.667Z,10.82
2023-02-19T07:57:14.699Z,10.73
2023-02-19T08:00:16.872Z,10.82
2023-02-19T08:03:18.772Z,11.00
2023-02-19T08:06:20.635Z,10.99
2023-02-19T08:09:22.533Z,11.30
2023-02-19T08:12:42.948Z,11.76
2023-02-19T08:15:45.336Z,11.33
2023-02-19T08:18:48.049Z,11.42
2023-02-19T08:21:50.680Z,11.68
2023-02-19T08:24:52.695Z,11.55
2023-02-19T08:27:54.557Z,11.81
2023-02-19T08:31:04.359Z,11.69
2023-02-19T08:34:06.364Z,11.46
2023-02-19T08:37:08.190Z,11.56
2023-02-19T08:40:10.397Z,11.99
2023-02-19T08:43:13.440Z,11.51
2023-02-19T08:46:15.417Z,11.50
2023-02-19T08:49:17.322Z,12.48
2023-02-19T08:52:19.190Z,12.52
2023-02-19T08:55:21.071Z,13.14
2023-02-19T08:58:23.282Z,12.42
2023-02-19T09:01:25.346Z,12.75
2023-02-19T09:04:27.321Z,13.53
2023-02-19T09:07:29.176Z,13.39
2023-02-19T09:10:31.167Z,12.69
2023-02-19T09:13:33.005Z,12.10
2023-02-19T09:16:35.506Z,12.55
2023-02-19T09:19:37.472Z,13.26
2023-02-19T09:22:39.338Z,13.62
2023-02-19T09:25:41.296Z,13.74
2023-02-19T09:28:43.381Z,13.93
2023-02-19T09:31:45.425Z,13.61
2023-02-19T09:34:47.468Z,13.24
2023-02-19T09:37:49.499Z,12.43
2023-02-19T09:40:51.369Z,12.58
2023-02-19T09:43:53.355Z,12.84
2023-02-19T09:46:55.179Z,12.79
2023-02-19T09:49:59.425Z,13.18
2023-02-19T09:53:03.184Z,12.74
2023-02-19T09:56:05.197Z,12.60
2023-02-19T09:59:07.166Z,13.52
2023-02-19T10:02:18.981Z,14.41
2023-02-19T10:05:20.890Z,14.19
2023-02-19T10:08:23.084Z,14.00
2023-02-19T10:11:25.075Z,13.51
2023-02-19T10:14:27.004Z,14.61
2023-02-19T10:17:34.510Z,13.98
2023-02-19T10:20:36.359Z,13.88
2023-02-19T10:23:39.197Z,13.71
2023-02-19T10:26:41.101Z,14.35
2023-02-19T10:29:43.336Z,15.23
2023-02-19T10:33:08.777Z,15.02
2023-02-19T10:36:16.410Z,14.99
2023-02-19T10:39:21.133Z,14.87
2023-02-19T10:42:23.409Z,14.89
2023-02-19T10:45:44.492Z,15.91
2023-02-19T10:48:59.735Z,15.69
2023-02-19T10:52:20.611Z,17.08
2023-02-19T10:55:30.557Z,17.33
2023-02-19T10:58:34.519Z,16.11
2023-02-19T11:01:36.530Z,17.67
2023-02-19T11:04:38.531Z,17.56
2023-02-19T11:07:44.483Z,18.08
2023-02-19T11:10:46.399Z,18.62
2023-02-19T11:13:48.396Z,17.77
2023-02-19T11:16:55.112Z,19.13
2023-02-19T11:19:57.430Z,17.56
2023-02-19T11:23:25.896Z,18.80
2023-02-19T11:26:28.775Z,18.40
2023-02-19T11:29:34.998Z,20.60
2023-02-19T11:32:36.975Z,20.44
2023-02-19T11:35:38.871Z,19.80
2023-02-19T11:38:40.868Z,19.42
2023-02-19T11:41:50.676Z,18.28
2023-02-19T11:45:11.644Z,18.30
2023-02-19T11:48:19.682Z,17.44
2023-02-19T11:51:44.996Z,17.38
2023-02-19T11:54:49.460Z,18.39
2023-02-19T11:57:51.285Z,17.28
2023-02-19T12:00:55.629Z,18.90
2023-02-19T12:04:11.111Z,17.48
2023-02-19T12:07:13.398Z,17.82
2023-02-19T12:10:26.767Z,18.07
2023-02-19T12:13:31.786Z,19.49
2023-02-19T12:16:39.788Z,19.31
2023-02-19T12:19:45.392Z,18.55
2023-02-19T12:22:53.955Z,18.48
2023-02-19T12:26:12.579Z,18.00
2023-02-19T12:29:31.065Z,17.15
2023-02-19T12:32:48.171Z,17.53
2023-02-19T12:36:05.520Z,17.37
2023-02-19T12:39:14.774Z,18.03
2023-02-19T12:42:35.385Z,17.73
2023-02-19T12:45:46.400Z,18.16
2023-02-19T12:48:52.803Z,18.67
2023-02-19T12:51:58.868Z,20.18
2023-02-19T12:55:02.549Z,19.03
2023-02-19T12:58:05.064Z,16.51
2023-02-19T13:01:07.543Z,15.35
2023-02-19T13:04:15.578Z,14.62
2023-02-19T13:07:19.302Z,13.10
2023-02-19T13:10:27.290Z,13.15
2023-02-19T13:13:31.007Z,13.53
2023-02-19T13:16:34.720Z,13.77
2023-02-19T13:19:37.179Z,15.40
2023-02-19T13:22:58.832Z,17.72
2023-02-19T13:26:03.788Z,19.21
2023-02-19T13:29:18.035Z,17.82
2023-02-19T13:32:23.525Z,19.79
2023-02-19T13:35:37.717Z,21.42
2023-02-19T13:38:44.062Z,22.09
2023-02-19T13:41:50.471Z,20.07
2023-02-19T13:44:57.739Z,19.02
2023-02-19T13:48:02.368Z,19.28
2023-02-19T13:51:16.254Z,16.46
2023-02-19T13:54:22.455Z,13.73
2023-02-19T13:57:24.382Z,13.11
2023-02-19T14:00:44.958Z,13.31
2023-02-19T14:03:53.836Z,12.35
2023-02-19T14:07:04.818Z,12.55
2023-02-19T14:10:08.967Z,12.48
2023-02-19T14:13:10.799Z,12.84
2023-02-19T14:16:29.030Z,13.21
2023-02-19T14:19:46.916Z,12.98
2023-02-19T14:22:52.558Z,12.87
2023-02-19T14:25:58.639Z,13.09
2023-02-19T14:29:00.707Z,12.86
2023-02-19T14:32:02.564Z,12.53
2023-02-19T14:35:04.603Z,12.68
2023-02-19T14:38:06.556Z,12.98
2023-02-19T14:41:08.595Z,13.60
2023-02-19T14:44:15.224Z,13.20
2023-02-19T14:47:17.751Z,13.06
2023-02-19T14:50:27.828Z,12.96
2023-02-19T14:53:29.801Z,13.08
2023-02-19T14:56:33.564Z,12.85
2023-02-19T14:59:35.518Z,12.69
2023-02-19T15:02:41.845Z,12.92
2023-02-19T15:05:45.340Z,13.58
2023-02-19T15:08:48.395Z,13.11
2023-02-19T15:11:50.481Z,13.70
2023-02-19T15:14:54.217Z,13.13
2023-02-19T15:17:56.859Z,13.14
2023-02-19T15:21:02.539Z,13.07
2023-02-19T15:24:05.253Z,13.20
2023-02-19T15:27:07.090Z,13.40
2023-02-19T15:30:23.033Z,12.66
2023-02-19T15:33:27.213Z,12.82
2023-02-19T15:36:30.374Z,12.32
2023-02-19T15:39:36.377Z,12.79
2023-02-19T15:42:38.256Z,12.59
2023-02-19T15:45:42.946Z,12.58
2023-02-19T15:48:46.795Z,12.49
2023-02-19T15:51:53.517Z,11.82
2023-02-19T15:54:58.352Z,12.09
2023-02-19T15:58:35.791Z,12.07
2023-02-19T16:01:37.835Z,11.96
2023-02-19T16:04:43.408Z,11.32
2023-02-19T16:07:45.437Z,11.95
2023-02-19T16:10:57.667Z,11.98
2023-02-19T16:14:18.396Z,11.99
2023-02-19T16:17:23.094Z,11.79
2023-02-19T16:20:28.795Z,12.04
2023-02-19T16:23:31.329Z,11.84
2023-02-19T16:26:40.276Z,12.03
2023-02-19T16:29:42.315Z,11.62
2023-02-19T16:32:45.512Z,11.74
2023-02-19T16:35:49.859Z,11.54
2023-02-19T16:39:07.136Z,12.01
2023-02-19T16:42:11.176Z,12.02
2023-02-19T16:45:13.219Z,12.11
2023-02-19T16:48:15.096Z,11.52
2023-02-19T16:51:18.154Z,11.15
2023-02-19T16:54:20.173Z,10.84
2023-02-19T16:57:22.169Z,10.83
2023-02-19T17:00:25.235Z,11.06
2023-02-19T17:03:27.994Z,11.02
2023-02-19T17:06:30.120Z,10.57
2023-02-19T17:09:32.105Z,10.55
2023-02-19T17:12:33.966Z,10.91
2023-02-19T17:15:35.784Z,10.96
2023-02-19T17:18:37.644Z,10.70
2023-02-19T17:21:39.957Z,10.90
2023-02-19T17:24:41.867Z,10.76
2023-02-19T17:27:43.774Z,10.85
2023-02-19T17:30:45.820Z,10.29
2023-02-19T17:33:47.884Z,10.67
2023-02-19T17:36:49.745Z,10.82
2023-02-19T17:39:51.683Z,10.57
2023-02-19T17:42:53.588Z,11.08
2023-02-19T17:45:55.564Z,10.96
2023-02-19T17:48:57.711Z,11.25
2023-02-19T17:51:59.669Z,11.09
2023-02-19T17:55:01.706Z,10.48
2023-02-19T17:58:03.613Z,10.40
2023-02-19T18:01:05.646Z,10.51
2023-02-19T18:04:07.723Z,10.98
2023-02-19T18:07:09.646Z,11.00
2023-02-19T18:10:12.080Z,10.69
2023-02-19T18:13:14.059Z,10.74
2023-02-19T18:16:16.806Z,10.91
2023-02-19T18:19:18.835Z,11.18
2023-02-19T18:22:20.716Z,10.50
2023-02-19T18:25:22.792Z,11.10
2023-02-19T18:28:24.879Z,11.33
2023-02-19T18:31:26.862Z,12.02
2023-02-19T18:34:28.724Z,11.39
2023-02-19T18:37:32.503Z,12.07
2023-02-19T18:40:34.424Z,11.53
2023-02-19T18:43:36.416Z,11.24
2023-02-19T18:46:38.245Z,11.17
2023-02-19T18:49:40.391Z,11.51
2023-02-19T18:52:42.341Z,11.11
2023-02-19T18:55:44.231Z,11.26
2023-02-19T18:58:46.220Z,11.44
2023-02-19T19:01:48.172Z,10.07
2023-02-19T19:04:51.239Z,10.23
2023-02-19T19:07:54.131Z,10.17
2023-02-19T19:10:56.038Z,10.83
2023-02-19T19:13:57.948Z,10.68
2023-02-19T19:17:00.389Z,10.80
2023-02-19T19:20:02.351Z,11.03
2023-02-19T19:23:06.079Z,10.70
2023-02-19T19:26:08.179Z,10.70
2023-02-19T19:29:10.145Z,11.01
2023-02-19T19:32:12.364Z,10.73
2023-02-19T19:35:15.737Z,10.16
2023-02-19T19:38:17.694Z,9.64
2023-02-19T19:41:19.700Z,9.71
2023-02-19T19:44:21.606Z,9.78
2023-02-19T19:47:23.445Z,9.24
2023-02-19T19:50:25.341Z,9.54
2023-02-19T19:53:27.343Z,9.09
2023-02-19T19:56:29.224Z,9.60
2023-02-19T19:59:31.258Z,9.71
2023-02-19T20:02:33.205Z,9.61
2023-02-19T20:05:35.418Z,9.25
2023-02-19T20:08:37.275Z,9.49
2023-02-19T20:11:46.471Z,8.93
2023-02-19T20:14:48.499Z,9.17
2023-02-19T20:17:50.393Z,9.39
2023-02-19T20:20:52.203Z,9.23
2023-02-19T20:23:54.135Z,9.49
2023-02-19T20:26:59.739Z,9.50
2023-02-19T20:30:01.605Z,9.28
2023-02-19T20:33:03.648Z,9.12
2023-02-19T20:36:05.797Z,8.76
2023-02-19T20:39:07.754Z,8.97
2023-02-19T20:42:09.946Z,9.64
2023-02-19T20:45:11.841Z,10.28
2023-02-19T20:48:17.027Z,10.14
2023-02-19T20:51:18.879Z,10.85
2023-02-19T20:54:21.710Z,8.95
2023-02-19T20:57:23.971Z,9.16
2023-02-19T21:00:25.935Z,8.53
2023-02-19T21:03:27.881Z,8.50
2023-02-19T21:06:29.896Z,8.58
2023-02-19T21:09:32.182Z,8.70
2023-02-19T21:12:34.150Z,8.63
2023-02-19T21:15:36.098Z,8.15
2023-02-19T21:18:38.038Z,7.97
2023-02-19T21:21:40.503Z,8.16
2023-02-19T21:24:42.370Z,8.17
2023-02-19T21:27:44.260Z,7.90
2023-02-19T21:30:46.211Z,7.59
2023-02-19T21:33:48.131Z,7.86
2023-02-19T21:36:49.956Z,7.94
2023-02-19T21:39:51.953Z,7.07
2023-02-19T21:42:53.902Z,6.98
2023-02-19T21:45:55.934Z,7.37
2023-02-19T21:48:57.823Z,7.12
2023-02-19T21:51:59.612Z,6.89
2023-02-19T21:55:01.457Z,6.90
2023-02-19T21:58:03.448Z,6.31
2023-02-19T22:01:05.272Z,7.04
2023-02-19T22:04:07.299Z,6.64
2023-02-19T22:07:09.330Z,6.59
2023-02-19T22:10:11.208Z,6.22
2023-02-19T22:13:13.193Z,6.64
2023-02-19T22:16:15.279Z,6.72
2023-02-19T22:19:17.285Z,6.43
2023-02-19T22:22:19.172Z,6.42
2023-02-19T22:25:21.061Z,6.13
2023-02-19T22:28:22.903Z,6.02
2023-02-19T22:31:25.812Z,6.20
2023-02-19T22:34:27.689Z,6.34
2023-02-19T22:37:30.032Z,6.43
2023-02-19T22:40:31.930Z,6.79
2023-02-19T22:43:33.747Z,6.50
2023-02-19T22:46:35.620Z,6.36
2023-02-19T22:49:38.100Z,6.80
2023-02-19T22:52:39.939Z,6.81
2023-02-19T22:55:42.090Z,6.64
2023-02-19T22:58:44.162Z,6.33
2023-02-19T23:01:46.148Z,6.76
2023-02-19T23:04:48.079Z,6.44
2023-02-19T23:07:49.985Z,6.73
2023-02-19T23:10:51.932Z,6.34
2023-02-19T23:13:54.089Z,6.61
2023-02-19T23:16:56.012Z,6.38
2023-02-19T23:19:58.005Z,6.02
2023-02-19T23:22:59.930Z,5.75
2023-02-19T23:26:02.403Z,6.24
2023-02-19T23:29:04.379Z,5.62
2023-02-19T23:32:06.344Z,6.05
2023-02-19T23:35:08.301Z,5.91
2023-02-19T23:38:10.199Z,6.27
2023-02-19T23:41:12.548Z,5.93
2023-02-19T23:44:14.696Z,6.05
2023-02-19T23:47:16.700Z,5.69
2023-02-19T23:50:18.698Z,6.57
2023-02-19T23:53:20.599Z,6.20
2023-02-19T23:56:23.762Z,5.77
2023-02-19T23:59:25.627Z,6.12
